createdAt,value
2022-09-14T00:01:31.928Z,22.89
2022-09-14T00:04:06.861Z,22.88
2022-09-14T00:06:33.870Z,22.87
2022-09-14T00:09:01.117Z,22.85
2022-09-14T00:11:30.197Z,22.85
2022-09-14T00:13:57.450Z,22.83
2022-09-14T00:16:26.870Z,22.83
2022-09-14T00:18:55.758Z,22.81
2022-09-14T00:21:22.875Z,22.80
2022-09-14T00:23:49.787Z,22.77
2022-09-14T00:26:19.647Z,22.71
2022-09-14T00:28:49.038Z,22.70
2022-09-14T00:31:16.051Z,22.71
2022-09-14T00:33:43.287Z,22.69
2022-09-14T00:36:15.818Z,22.52
2022-09-14T00:38:42.892Z,22.65
2022-09-14T00:41:16.403Z,22.62
2022-09-14T00:43:58.545Z,22.64
2022-09-14T00:46:26.552Z,22.62
2022-09-14T00:48:53.823Z,22.61
2022-09-14T00:51:21.649Z,22.58
2022-09-14T00:53:48.510Z,22.58
2022-09-14T00:56:15.383Z,22.56
2022-09-14T00:58:43.244Z,22.55
2022-09-14T01:01:10.812Z,22.55
2022-09-14T01:03:37.784Z,22.52
2022-09-14T01:06:17.879Z,22.53
2022-09-14T01:08:50.765Z,22.54
2022-09-14T01:11:48.318Z,22.53
2022-09-14T01:14:20.875Z,22.52
2022-09-14T01:17:04.679Z,22.40
2022-09-14T01:19:55.785Z,22.50
2022-09-14T01:22:26.504Z,22.38
2022-09-14T01:24:56.143Z,22.50
2022-09-14T01:27:41.880Z,22.49
2022-09-14T01:30:12.647Z,22.30
2022-09-14T01:32:49.852Z,22.44
2022-09-14T01:35:36.177Z,22.26
2022-09-14T01:38:12.959Z,22.37
2022-09-14T01:40:42.099Z,22.38
2022-09-14T01:43:18.897Z,22.18
2022-09-14T01:45:54.214Z,22.34
2022-09-14T01:48:25.126Z,22.26
2022-09-14T01:50:53.808Z,22.26
2022-09-14T01:53:37.905Z,22.27
2022-09-14T01:56:17.347Z,22.30
2022-09-14T01:58:48.302Z,22.01
2022-09-14T02:01:25.001Z,22.29
2022-09-14T02:03:54.518Z,22.26
2022-09-14T02:06:24.287Z,22.28
2022-09-14T02:08:51.324Z,22.20
2022-09-14T02:11:18.207Z,22.24
2022-09-14T02:13:45.044Z,22.24
2022-09-14T02:16:12.190Z,22.07
2022-09-14T02:18:39.777Z,22.24
2022-09-14T02:21:09.443Z,22.17
2022-09-14T02:23:36.256Z,22.18
2022-09-14T02:26:03.208Z,22.23
2022-09-14T02:28:30.506Z,22.20
2022-09-14T02:31:03.239Z,22.15
2022-09-14T02:33:41.114Z,22.17
2022-09-14T02:36:14.464Z,22.12
2022-09-14T02:38:48.222Z,21.87
2022-09-14T02:41:21.985Z,22.12
2022-09-14T02:44:24.157Z,22.10
2022-09-14T02:47:03.111Z,22.10
2022-09-14T02:49:42.416Z,22.07
2022-09-14T02:52:18.450Z,22.12
2022-09-14T02:54:53.247Z,22.10
2022-09-14T02:57:20.168Z,22.08
2022-09-14T02:59:46.983Z,22.07
2022-09-14T03:02:14.162Z,22.09
2022-09-14T03:04:41.173Z,22.07
2022-09-14T03:07:08.742Z,22.07
2022-09-14T03:09:35.553Z,22.07
2022-09-14T03:12:02.660Z,22.04
2022-09-14T03:14:29.465Z,22.07
2022-09-14T03:16:56.274Z,22.07
2022-09-14T03:19:23.216Z,22.04
2022-09-14T03:21:50.228Z,21.92
2022-09-14T03:24:17.058Z,22.00
2022-09-14T03:26:44.183Z,21.98
2022-09-14T03:29:11.032Z,22.02
2022-09-14T03:31:37.992Z,22.00
2022-09-14T03:34:04.945Z,22.00
2022-09-14T03:36:31.823Z,21.64
2022-09-14T03:38:59.569Z,21.94
2022-09-14T03:41:26.436Z,21.93
2022-09-14T03:43:53.448Z,21.91
2022-09-14T03:46:22.462Z,21.92
2022-09-14T03:48:49.479Z,21.92
2022-09-14T03:51:16.512Z,22.26
2022-09-14T03:53:44.519Z,22.38
2022-09-14T03:56:13.542Z,22.93
2022-09-14T03:58:40.444Z,23.28
2022-09-14T04:01:08.798Z,23.38
2022-09-14T04:03:36.103Z,23.50
2022-09-14T04:06:06.646Z,23.46
2022-09-14T04:08:34.798Z,23.43
2022-09-14T04:11:16.348Z,23.34
2022-09-14T04:13:43.443Z,23.21
2022-09-14T04:16:10.487Z,23.23
2022-09-14T04:18:37.608Z,22.89
2022-09-14T04:21:08.527Z,22.90
2022-09-14T04:23:42.337Z,23.04
2022-09-14T04:26:18.991Z,23.06
2022-09-14T04:28:45.858Z,23.02
2022-09-14T04:31:13.177Z,22.97
2022-09-14T04:33:41.845Z,22.92
2022-09-14T04:36:10.369Z,22.85
2022-09-14T04:38:37.867Z,22.77
2022-09-14T04:41:06.541Z,22.78
2022-09-14T04:43:34.106Z,22.67
2022-09-14T04:46:02.821Z,22.64
2022-09-14T04:48:36.306Z,22.70
2022-09-14T04:51:10.763Z,22.57
2022-09-14T04:53:38.588Z,22.58
2022-09-14T04:56:07.357Z,22.68
2022-09-14T04:58:35.682Z,22.60
2022-09-14T05:01:08.640Z,22.52
2022-09-14T05:03:36.565Z,22.51
2022-09-14T05:06:14.034Z,22.46
2022-09-14T05:08:41.763Z,22.40
2022-09-14T05:11:09.541Z,22.37
2022-09-14T05:13:36.664Z,22.29
2022-09-14T05:16:10.496Z,22.30
2022-09-14T05:18:37.778Z,22.34
2022-09-14T05:21:08.368Z,22.40
2022-09-14T05:23:35.965Z,22.39
2022-09-14T05:26:03.659Z,22.35
2022-09-14T05:28:30.982Z,22.30
2022-09-14T05:30:58.018Z,22.31
2022-09-14T05:33:25.239Z,22.32
2022-09-14T05:35:52.417Z,22.34
2022-09-14T05:38:19.329Z,22.31
2022-09-14T05:40:46.309Z,22.40
2022-09-14T05:43:13.323Z,22.29
2022-09-14T05:45:40.237Z,22.38
2022-09-14T05:48:07.385Z,22.39
2022-09-14T05:50:34.382Z,22.39
2022-09-14T05:53:01.765Z,22.44
2022-09-14T05:55:28.776Z,22.41
2022-09-14T05:57:55.851Z,22.28
2022-09-14T06:00:23.012Z,22.43
2022-09-14T06:02:51.016Z,22.45
2022-09-14T06:05:18.589Z,22.40
2022-09-14T06:07:45.815Z,22.24
2022-09-14T06:10:13.015Z,22.34
2022-09-14T06:12:40.107Z,22.42
2022-09-14T06:15:07.465Z,22.42
2022-09-14T06:17:35.040Z,22.45
2022-09-14T06:20:04.819Z,22.29
2022-09-14T06:22:32.500Z,22.38
2022-09-14T06:24:59.612Z,22.32
2022-09-14T06:27:27.491Z,22.19
2022-09-14T06:29:54.707Z,22.39
2022-09-14T06:32:23.335Z,22.40
2022-09-14T06:34:50.304Z,22.43
2022-09-14T06:37:17.350Z,22.34
2022-09-14T06:39:44.327Z,22.33
2022-09-14T06:42:11.253Z,22.38
2022-09-14T06:44:39.169Z,22.33
2022-09-14T06:47:07.564Z,22.49
2022-09-14T06:49:34.533Z,22.51
2022-09-14T06:52:01.577Z,22.48
2022-09-14T06:54:28.648Z,22.50
2022-09-14T06:56:55.545Z,22.50
2022-09-14T06:59:22.471Z,22.52
2022-09-14T07:01:49.944Z,22.37
2022-09-14T07:04:17.028Z,22.65
2022-09-14T07:06:44.649Z,22.57
2022-09-14T07:09:11.913Z,22.67
2022-09-14T07:11:38.991Z,22.23
2022-09-14T07:14:06.056Z,22.62
2022-09-14T07:16:34.601Z,22.65
2022-09-14T07:19:03.718Z,22.71
2022-09-14T07:21:31.212Z,22.75
2022-09-14T07:23:58.268Z,22.88
2022-09-14T07:26:33.748Z,22.91
2022-09-14T07:29:04.618Z,22.89
2022-09-14T07:31:37.948Z,22.81
2022-09-14T07:34:05.293Z,22.93
2022-09-14T07:36:35.026Z,22.91
2022-09-14T07:39:03.302Z,22.83
2022-09-14T07:41:30.575Z,22.95
2022-09-14T07:44:00.425Z,22.97
2022-09-14T07:46:28.601Z,23.01
2022-09-14T07:48:59.404Z,22.98
2022-09-14T07:51:26.464Z,22.89
2022-09-14T07:53:53.503Z,23.00
2022-09-14T07:56:21.830Z,23.05
2022-09-14T07:58:53.959Z,23.00
2022-09-14T08:01:22.593Z,23.00
2022-09-14T08:03:49.632Z,22.89
2022-09-14T08:06:18.125Z,22.97
2022-09-14T08:08:45.764Z,22.94
2022-09-14T08:11:13.774Z,22.90
2022-09-14T08:13:44.245Z,22.91
2022-09-14T08:16:11.189Z,22.74
2022-09-14T08:18:38.167Z,22.81
2022-09-14T08:21:06.681Z,22.75
2022-09-14T08:23:34.135Z,22.83
2022-09-14T08:26:23.027Z,22.77
2022-09-14T08:28:50.571Z,22.63
2022-09-14T08:31:22.098Z,22.66
2022-09-14T08:33:59.065Z,22.66
2022-09-14T08:36:27.922Z,22.62
2022-09-14T08:38:54.850Z,22.63
2022-09-14T08:41:37.929Z,22.73
2022-09-14T08:44:18.726Z,22.80
2022-09-14T08:46:54.230Z,22.73
2022-09-14T08:49:30.155Z,22.71
2022-09-14T08:51:57.302Z,22.77
2022-09-14T08:54:24.104Z,22.86
2022-09-14T08:57:12.634Z,22.93
2022-09-14T08:59:42.538Z,22.96
2022-09-14T09:02:26.765Z,22.88
2022-09-14T09:04:56.624Z,22.88
2022-09-14T09:07:39.466Z,22.92
2022-09-14T09:10:06.533Z,22.97
2022-09-14T09:12:42.088Z,22.99
2022-09-14T09:15:23.965Z,23.03
2022-09-14T09:18:03.682Z,23.04
2022-09-14T09:20:31.991Z,22.90
2022-09-14T09:23:18.133Z,23.14
2022-09-14T09:26:03.413Z,23.19
2022-09-14T09:28:30.419Z,23.21
2022-09-14T09:31:09.124Z,23.25
2022-09-14T09:33:58.513Z,23.27
2022-09-14T09:36:33.365Z,23.31
2022-09-14T09:39:04.415Z,23.29
2022-09-14T09:41:45.438Z,23.13
2022-09-14T09:44:12.606Z,22.99
2022-09-14T09:46:49.447Z,23.17
2022-09-14T09:49:20.642Z,23.26
2022-09-14T09:51:47.588Z,23.31
2022-09-14T09:54:14.392Z,23.35
2022-09-14T09:56:48.113Z,23.34
2022-09-14T09:59:22.090Z,23.31
2022-09-14T10:01:49.123Z,23.30
2022-09-14T10:04:18.084Z,23.21
2022-09-14T10:06:49.696Z,23.33
2022-09-14T10:09:21.297Z,23.24
2022-09-14T10:11:49.327Z,23.32
2022-09-14T10:14:22.494Z,23.13
2022-09-14T10:16:49.462Z,23.27
2022-09-14T10:19:24.736Z,23.22
2022-09-14T10:22:10.393Z,22.90
2022-09-14T10:24:38.025Z,23.03
2022-09-14T10:27:38.130Z,23.10
2022-09-14T10:30:07.348Z,23.04
2022-09-14T10:32:34.260Z,22.99
2022-09-14T10:35:01.172Z,22.98
2022-09-14T10:37:32.126Z,22.94
2022-09-14T10:40:16.909Z,22.92
2022-09-14T10:43:28.918Z,22.94
2022-09-14T10:45:58.677Z,23.01
2022-09-14T10:48:36.011Z,22.99
2022-09-14T10:51:35.052Z,23.06
2022-09-14T10:54:14.428Z,22.94
2022-09-14T10:57:03.655Z,23.12
2022-09-14T10:59:51.897Z,23.14
2022-09-14T11:02:25.417Z,23.17
2022-09-14T11:05:07.494Z,23.16
2022-09-14T11:08:08.252Z,23.15
2022-09-14T11:10:41.201Z,23.16
2022-09-14T11:13:25.002Z,23.13
2022-09-14T11:16:33.199Z,23.12
2022-09-14T11:19:15.020Z,23.05
2022-09-14T11:21:54.002Z,23.01
2022-09-14T11:25:05.507Z,23.04
2022-09-14T11:27:49.213Z,22.95
2022-09-14T11:30:18.524Z,22.98
2022-09-14T11:32:56.035Z,23.02
2022-09-14T11:35:32.249Z,22.99
2022-09-14T11:38:01.306Z,22.89
2022-09-14T11:40:36.070Z,22.77
2022-09-14T11:43:24.226Z,22.87
2022-09-14T11:45:53.644Z,22.86
2022-09-14T11:48:42.867Z,22.74
2022-09-14T11:51:24.537Z,22.81
2022-09-14T11:53:51.766Z,22.81
2022-09-14T11:56:27.039Z,22.71
2022-09-14T11:59:03.423Z,22.85
2022-09-14T12:01:32.013Z,22.74
2022-09-14T12:04:02.108Z,22.82
2022-09-14T12:06:31.750Z,22.86
2022-09-14T12:09:24.042Z,22.94
2022-09-14T12:11:58.622Z,22.90
2022-09-14T12:14:28.880Z,22.83
2022-09-14T12:17:38.246Z,22.98
2022-09-14T12:20:32.973Z,23.03
2022-09-14T12:23:21.084Z,22.96
2022-09-14T12:26:02.935Z,22.96
2022-09-14T12:28:50.367Z,23.02
2022-09-14T12:31:47.989Z,23.10
2022-09-14T12:34:18.829Z,23.13
2022-09-14T12:36:45.585Z,23.23
2022-09-14T12:39:24.503Z,23.28
2022-09-14T12:41:51.345Z,23.28
2022-09-14T12:44:33.223Z,23.36
2022-09-14T12:47:24.917Z,23.39
2022-09-14T12:49:58.756Z,23.35
2022-09-14T12:52:47.734Z,23.35
2022-09-14T12:55:43.408Z,23.29
2022-09-14T12:58:16.409Z,23.23
2022-09-14T13:01:09.454Z,23.19
2022-09-14T13:03:52.194Z,23.12
2022-09-14T13:06:19.477Z,23.06
2022-09-14T13:08:48.546Z,23.00
2022-09-14T13:11:31.456Z,23.04
2022-09-14T13:13:58.431Z,23.00
2022-09-14T13:16:35.248Z,23.03
2022-09-14T13:19:05.137Z,23.03
2022-09-14T13:21:33.527Z,23.03
2022-09-14T13:24:00.483Z,23.05
2022-09-14T13:26:29.313Z,23.07
2022-09-14T13:28:56.908Z,23.05
2022-09-14T13:31:36.218Z,23.09
2022-09-14T13:34:04.752Z,23.04
2022-09-14T13:36:36.678Z,23.15
2022-09-14T13:39:04.215Z,22.92
2022-09-14T13:41:31.952Z,23.17
2022-09-14T13:43:59.242Z,23.17
2022-09-14T13:46:26.584Z,23.21
2022-09-14T13:48:53.689Z,23.21
2022-09-14T13:51:27.082Z,23.27
2022-09-14T13:53:57.212Z,23.23
2022-09-14T13:56:31.323Z,23.21
2022-09-14T13:59:07.491Z,23.21
2022-09-14T14:01:39.834Z,23.21
2022-09-14T14:04:19.139Z,23.19
2022-09-14T14:06:46.348Z,23.28
2022-09-14T14:09:14.624Z,23.15
2022-09-14T14:11:43.014Z,23.19
2022-09-14T14:14:17.156Z,23.24
2022-09-14T14:17:29.291Z,23.24
2022-09-14T14:19:58.709Z,23.22
2022-09-14T14:22:33.366Z,23.20
2022-09-14T14:25:16.017Z,23.19
2022-09-14T14:27:44.986Z,23.04
2022-09-14T14:30:18.978Z,23.11
2022-09-14T14:32:53.183Z,23.10
2022-09-14T14:35:22.924Z,23.08
2022-09-14T14:37:50.886Z,23.05
2022-09-14T14:40:18.394Z,23.02
2022-09-14T14:42:45.416Z,23.01
2022-09-14T14:45:19.295Z,22.88
2022-09-14T14:47:50.694Z,22.94
2022-09-14T14:50:19.531Z,22.93
2022-09-14T14:52:46.370Z,22.90
2022-09-14T14:55:13.488Z,22.93
2022-09-14T14:57:40.896Z,22.91
2022-09-14T15:00:13.635Z,22.94
2022-09-14T15:02:40.606Z,22.95
2022-09-14T15:05:07.813Z,22.87
2022-09-14T15:07:37.731Z,22.97
2022-09-14T15:10:05.925Z,23.02
2022-09-14T15:12:33.428Z,23.03
2022-09-14T15:15:00.810Z,23.02
2022-09-14T15:17:27.903Z,23.02
2022-09-14T15:19:54.840Z,23.02
2022-09-14T15:22:21.805Z,23.00
2022-09-14T15:24:48.636Z,22.97
2022-09-14T15:27:15.663Z,22.98
2022-09-14T15:29:42.662Z,22.95
2022-09-14T15:32:09.590Z,22.98
2022-09-14T15:34:36.623Z,22.99
2022-09-14T15:37:03.698Z,22.99
2022-09-14T15:39:31.709Z,22.98
2022-09-14T15:41:58.839Z,22.98
2022-09-14T15:44:25.987Z,22.85
2022-09-14T15:46:53.159Z,22.78
2022-09-14T15:49:21.633Z,22.94
2022-09-14T15:51:50.195Z,22.77
2022-09-14T15:54:18.066Z,22.91
2022-09-14T15:56:55.844Z,22.63
2022-09-14T15:59:22.913Z,22.86
2022-09-14T16:01:49.883Z,22.80
2022-09-14T16:04:17.594Z,22.79
2022-09-14T16:06:44.555Z,22.77
2022-09-14T16:09:12.014Z,22.74
2022-09-14T16:11:39.081Z,22.82
2022-09-14T16:14:06.819Z,22.85
2022-09-14T16:16:34.476Z,22.81
2022-09-14T16:19:05.881Z,22.83
2022-09-14T16:21:32.810Z,22.82
2022-09-14T16:24:01.540Z,22.83
2022-09-14T16:26:32.967Z,22.83
2022-09-14T16:28:59.942Z,22.72
2022-09-14T16:31:32.363Z,22.59
2022-09-14T16:34:01.192Z,22.79
2022-09-14T16:36:33.649Z,22.85
2022-09-14T16:39:01.649Z,22.84
2022-09-14T16:41:28.797Z,22.84
2022-09-14T16:43:56.443Z,22.85
2022-09-14T16:46:23.491Z,22.85
2022-09-14T16:48:50.410Z,22.77
2022-09-14T16:51:21.641Z,22.84
2022-09-14T16:53:48.896Z,22.83
2022-09-14T16:56:18.698Z,22.82
2022-09-14T16:58:46.441Z,22.82
2022-09-14T17:01:16.449Z,22.76
2022-09-14T17:03:44.815Z,22.72
2022-09-14T17:06:14.226Z,22.69
2022-09-14T17:08:43.840Z,22.73
2022-09-14T17:11:11.830Z,22.73
2022-09-14T17:13:38.785Z,22.61
2022-09-14T17:16:14.900Z,22.70
2022-09-14T17:18:42.842Z,22.68
2022-09-14T17:21:11.946Z,22.66
2022-09-14T17:23:39.190Z,22.50
2022-09-14T17:26:08.792Z,22.61
2022-09-14T17:28:35.994Z,22.59
2022-09-14T17:31:04.164Z,22.58
2022-09-14T17:33:31.767Z,22.56
2022-09-14T17:35:59.034Z,22.53
2022-09-14T17:38:28.135Z,22.48
2022-09-14T17:41:05.710Z,22.36
2022-09-14T17:43:33.331Z,22.47
2022-09-14T17:46:00.459Z,22.49
2022-09-14T17:48:27.841Z,22.49
2022-09-14T17:50:55.250Z,22.39
2022-09-14T17:53:22.559Z,22.41
2022-09-14T17:55:49.431Z,22.45
2022-09-14T17:58:19.734Z,22.46
2022-09-14T18:00:46.919Z,22.41
2022-09-14T18:03:13.925Z,22.39
2022-09-14T18:05:40.894Z,22.34
2022-09-14T18:08:07.908Z,22.32
2022-09-14T18:10:36.031Z,22.28
2022-09-14T18:13:03.041Z,22.06
2022-09-14T18:15:31.082Z,22.28
2022-09-14T18:17:58.660Z,22.25
2022-09-14T18:20:26.824Z,22.29
2022-09-14T18:22:55.234Z,22.31
2022-09-14T18:25:22.158Z,22.31
2022-09-14T18:27:49.128Z,22.04
2022-09-14T18:30:16.417Z,22.16
2022-09-14T18:32:46.296Z,22.16
2022-09-14T18:35:15.165Z,22.06
2022-09-14T18:37:42.232Z,22.18
2022-09-14T18:40:09.740Z,22.18
2022-09-14T18:42:36.680Z,22.23
2022-09-14T18:45:03.834Z,22.22
2022-09-14T18:47:30.664Z,22.20
2022-09-14T18:49:58.011Z,22.21
2022-09-14T18:52:25.073Z,22.20
2022-09-14T18:54:51.932Z,22.15
2022-09-14T18:57:19.995Z,22.14
2022-09-14T18:59:47.047Z,22.14
2022-09-14T19:02:14.146Z,22.10
2022-09-14T19:04:41.043Z,22.03
2022-09-14T19:07:08.570Z,22.06
2022-09-14T19:09:35.959Z,22.04
2022-09-14T19:12:03.121Z,21.99
2022-09-14T19:14:29.961Z,21.98
2022-09-14T19:16:58.332Z,21.87
2022-09-14T19:19:26.330Z,22.00
2022-09-14T19:21:54.139Z,21.91
2022-09-14T19:24:21.285Z,21.90
2022-09-14T19:26:49.967Z,21.87
2022-09-14T19:29:21.895Z,21.72
2022-09-14T19:31:51.581Z,21.85
2022-09-14T19:34:19.588Z,21.74
2022-09-14T19:36:46.637Z,21.86
2022-09-14T19:39:13.564Z,21.75
2022-09-14T19:41:40.463Z,21.86
2022-09-14T19:44:07.756Z,21.88
2022-09-14T19:46:36.323Z,21.81
2022-09-14T19:49:03.261Z,21.84
2022-09-14T19:51:30.780Z,21.83
2022-09-14T19:53:59.510Z,21.84
2022-09-14T19:56:28.137Z,21.71
2022-09-14T19:58:57.411Z,21.74
2022-09-14T20:01:25.613Z,21.70
2022-09-14T20:03:52.943Z,21.69
2022-09-14T20:06:23.537Z,21.69
2022-09-14T20:08:53.781Z,21.74
2022-09-14T20:11:21.530Z,21.69
2022-09-14T20:13:48.558Z,21.66
2022-09-14T20:16:17.892Z,21.66
2022-09-14T20:18:45.350Z,21.70
2022-09-14T20:21:14.168Z,21.71
2022-09-14T20:23:58.029Z,21.70
2022-09-14T20:26:28.967Z,21.71
2022-09-14T20:28:56.650Z,21.68
2022-09-14T20:31:23.583Z,21.66
2022-09-14T20:33:51.094Z,21.63
2022-09-14T20:36:19.479Z,21.59
2022-09-14T20:38:50.330Z,21.54
2022-09-14T20:41:20.491Z,21.54
2022-09-14T20:43:48.937Z,21.63
2022-09-14T20:46:20.367Z,21.62
2022-09-14T20:48:48.105Z,21.63
2022-09-14T20:51:19.965Z,21.58
2022-09-14T20:53:47.799Z,21.50
2022-09-14T20:56:20.694Z,21.59
2022-09-14T20:58:47.697Z,21.59
2022-09-14T21:01:19.083Z,21.50
2022-09-14T21:03:47.052Z,21.49
2022-09-14T21:06:21.652Z,21.52
2022-09-14T21:08:48.621Z,21.55
2022-09-14T21:11:16.241Z,21.55
2022-09-14T21:13:43.299Z,21.49
2022-09-14T21:16:23.520Z,21.50
2022-09-14T21:18:57.407Z,21.50
2022-09-14T21:21:24.575Z,21.49
2022-09-14T21:23:51.888Z,21.48
2022-09-14T21:26:19.276Z,21.48
2022-09-14T21:28:46.290Z,21.49
2022-09-14T21:31:14.391Z,21.49
2022-09-14T21:33:43.417Z,21.48
2022-09-14T21:36:14.007Z,21.52
2022-09-14T21:38:41.093Z,21.54
2022-09-14T21:41:09.662Z,21.58
2022-09-14T21:43:40.255Z,21.56
2022-09-14T21:46:08.050Z,21.60
2022-09-14T21:48:35.298Z,21.53
2022-09-14T21:51:14.936Z,21.40
2022-09-14T21:53:46.381Z,21.53
2022-09-14T21:56:13.636Z,21.52
2022-09-14T21:58:40.596Z,21.52
2022-09-14T22:01:08.316Z,21.44
2022-09-14T22:03:36.757Z,21.42
2022-09-14T22:06:06.551Z,21.42
2022-09-14T22:08:34.212Z,21.42
2022-09-14T22:11:07.879Z,21.43
2022-09-14T22:13:34.825Z,21.33
2022-09-14T22:16:14.845Z,21.41
2022-09-14T22:18:47.318Z,21.31
2022-09-14T22:21:14.388Z,21.32
2022-09-14T22:23:41.353Z,21.30
2022-09-14T22:26:11.905Z,21.26
2022-09-14T22:28:40.906Z,21.27
2022-09-14T22:31:08.149Z,21.40
2022-09-14T22:33:35.218Z,21.41
2022-09-14T22:36:02.597Z,21.40
2022-09-14T22:38:30.916Z,21.41
2022-09-14T22:40:59.269Z,21.22
2022-09-14T22:43:26.601Z,21.17
2022-09-14T22:45:53.602Z,21.29
2022-09-14T22:48:20.874Z,21.25
2022-09-14T22:50:49.505Z,21.21
2022-09-14T22:53:17.227Z,21.24
2022-09-14T22:55:44.886Z,21.24
2022-09-14T22:58:12.854Z,21.23
2022-09-14T23:00:39.992Z,21.25
2022-09-14T23:03:07.203Z,21.16
2022-09-14T23:05:34.883Z,21.15
2022-09-14T23:08:02.331Z,21.06
2022-09-14T23:10:29.192Z,20.98
2022-09-14T23:12:56.055Z,21.09
2022-09-14T23:15:22.882Z,21.06
2022-09-14T23:17:52.134Z,21.07
2022-09-14T23:20:19.136Z,21.06
2022-09-14T23:22:45.950Z,21.07
2022-09-14T23:25:12.929Z,21.16
2022-09-14T23:27:39.984Z,21.24
2022-09-14T23:30:07.363Z,21.23
2022-09-14T23:32:34.285Z,21.02
2022-09-14T23:35:01.245Z,21.12
2022-09-14T23:37:28.148Z,21.05
2022-09-14T23:39:55.068Z,21.06
2022-09-14T23:42:21.919Z,20.98
2022-09-14T23:44:48.954Z,20.99
2022-09-14T23:47:15.893Z,21.00
2022-09-14T23:49:42.720Z,21.04
2022-09-14T23:52:09.526Z,21.08
2022-09-14T23:54:36.406Z,21.03
2022-09-14T23:57:03.330Z,21.01
2022-09-14T23:59:30.129Z,20.99
